Impacts TAF Board INFO
FOR SITUATIONAL AWARENESS. NOT TO BE USED FOR FLIGHT PLANNING PURPOSES.
IDs:

KLGA - New York/La Guardia, NY, US

Issued at 2138 UTC 19 Jul 2018
Updated at 2307 UTC 19 Jul 2018
Potential Impact None Slight Moderate High
Time2251Z 20/00Z 20/01Z 20/02Z 20/03Z 20/04Z 20/05Z 20/06Z 20/07Z 20/08Z 20/09Z 20/10Z 20/11Z 20/12Z>>
Type OBS PRVL PRVL PRVL PRVL PRVL PRVL PRVL PRVL PRVL PRVL PRVL PRVL PRVL
VIS 10 >6 >6 >6 >6 >6 >6 >6 >6 >6 >6 >6 >6 >6
CIG -- -- -- -- -- -- -- -- -- -- -- -- -- --
Cover FEW SKC SKC SKC SKC SKC SKC SKC SKC SKC SKC SKC SKC SKC
FltCat VFR VFR VFR VFR VFR VFR VFR VFR VFR VFR VFR VFR VFR VFR
WX -- -- -- -- -- -- -- -- -- -- -- -- -- --
WDir 160 160 160 180 180 180 180 VRB VRB VRB VRB VRB VRB VRB
WSpd 10 9 9 5 5 5 5 4 4 4 4 4 4 4
WGst -- -- -- -- -- -- -- -- -- -- -- -- -- --

Raw TAF
KLGA 192138Z 1922/2024 16009KT P6SM SKC
  FM200200 18005KT P6SM SKC
  FM200600 VRB04KT P6SM SKC
  FM201500 15007KT P6SM SCT250
  FM201900 15012KT P6SM SCT250


Raw METAR
KLGA 192251Z 16010KT 10SM FEW070 FEW250 27/11 A3007 RMK AO2 SLP182 T02670111 $
KLGA 192151Z 16010KT 10SM FEW070 FEW250 27/11 A3007 RMK AO2 SLP181 T02720111 $
KLGA 192051Z 15009KT 10SM FEW070 FEW250 28/11 A3007 RMK AO2 SLP181 T02780106 56006 $

METAR Board
Radar Display
Forecast Discussion

FOR SITUATIONAL AWARENESS. NOT TO BE USED FOR FLIGHT PLANNING PURPOSES.